Time;durP1;ratioP1;P1;durP2;ratioP2;P2;SDS_P1;SDS_P2;PMS_P1;PMS_P2;Temp;Humidity;BMP_temperature;BMP_pressure;BME280_temperature;BME280_humidity;BME280_pressure;Samples;Min_cycle;Max_cycle;Signal;HPM_P1;HPM_P2
2022/04/04 00:00:15;;;;;;;9.57;6.40;;;;;;;-143.11;100.00;65634.97;5077310;28;20183;-68
2022/04/04 00:02:44;;;;;;;7.93;6.50;;;;;;;-143.11;100.00;65634.97;5077448;28;20184;-69
2022/04/04 00:05:11;;;;;;;13.73;6.83;;;;;;;-143.11;100.00;65634.97;5077050;28;20261;-69
2022/04/04 00:07:37;;;;;;;9.07;6.80;;;;;;;-143.11;100.00;65634.97;5076914;28;20688;-69
2022/04/04 00:10:03;;;;;;;10.10;7.23;;;;;;;-143.11;100.00;65634.97;5076843;28;20206;-65
2022/04/04 00:12:29;;;;;;;8.93;6.67;;;;;;;-143.11;100.00;65634.97;5076876;28;20191;-67
2022/04/04 00:14:54;;;;;;;8.83;6.63;;;;;;;-143.11;100.00;65634.97;5077326;28;20279;-57
2022/04/04 00:17:19;;;;;;;9.33;6.90;;;;;;;-143.11;100.00;65634.97;5076923;28;20228;-57
2022/04/04 00:19:45;;;;;;;7.93;6.93;;;;;;;-143.11;100.00;65634.97;5077312;28;20698;-56
2022/04/04 00:22:10;;;;;;;9.93;7.13;;;;;;;-143.11;100.00;65634.97;5076841;28;20185;-55
2022/04/04 00:24:36;;;;;;;8.70;7.03;;;;;;;-143.11;100.00;65634.97;5076851;28;20239;-55
2022/04/04 00:27:02;;;;;;;11.80;6.70;;;;;;;-143.11;100.00;65634.97;5076661;28;20200;-55
2022/04/04 00:29:27;;;;;;;12.93;7.43;;;;;;;-143.11;100.00;65634.97;5076949;28;20180;-62
2022/04/04 00:31:53;;;;;;;10.27;6.83;;;;;;;-143.11;100.00;65634.97;5076933;28;20212;-66
2022/04/04 00:34:19;;;;;;;11.77;7.43;;;;;;;-143.11;100.00;65634.97;5076764;28;20187;-67
2022/04/04 00:36:45;;;;;;;10.97;7.37;;;;;;;-143.11;100.00;65634.97;5076856;28;20184;-66
2022/04/04 00:39:11;;;;;;;9.93;7.00;;;;;;;-143.11;100.00;65634.97;5076479;28;20306;-66
2022/04/04 00:41:37;;;;;;;12.57;7.93;;;;;;;-143.11;100.00;65634.97;5076523;28;20181;-67
2022/04/04 00:44:03;;;;;;;11.83;7.87;;;;;;;-143.11;100.00;65634.97;5076379;28;20609;-66
2022/04/04 00:46:28;;;;;;;10.43;8.00;;;;;;;-143.11;100.00;65634.97;5076452;28;20185;-67
2022/04/04 00:48:54;;;;;;;10.60;7.80;;;;;;;-143.11;100.00;65634.97;5076588;28;20290;-68
2022/04/04 00:51:19;;;;;;;10.23;7.57;;;;;;;-143.11;100.00;65634.97;5076299;28;20204;-66
2022/04/04 00:53:45;;;;;;;12.67;7.73;;;;;;;-143.11;100.00;65634.97;5076492;28;20195;-66
2022/04/04 00:56:11;;;;;;;10.03;7.30;;;;;;;-143.11;100.00;65634.97;5076185;28;20196;-66
2022/04/04 00:58:38;;;;;;;10.97;7.33;;;;;;;-143.11;100.00;65634.97;5076217;28;20180;-66
2022/04/04 01:01:05;;;;;;;12.57;8.10;;;;;;;-143.11;100.00;65634.97;5074866;28;20203;-66
2022/04/04 01:03:30;;;;;;;8.97;7.30;;;;;;;-143.11;100.00;65634.97;5076255;28;20208;-66
2022/04/04 01:05:58;;;;;;;11.30;7.70;;;;;;;-143.11;100.00;65634.97;5076150;28;20585;-57
2022/04/04 01:08:23;;;;;;;10.03;7.10;;;;;;;-143.11;100.00;65634.97;5076098;28;20248;-66
2022/04/04 01:10:49;;;;;;;10.77;7.77;;;;;;;-143.11;100.00;65634.97;5075970;28;20292;-66
2022/04/04 01:13:14;;;;;;;9.90;7.03;;;;;;;-143.11;100.00;65634.97;5076039;28;20189;-65
2022/04/04 01:15:40;;;;;;;10.40;6.90;;;;;;;-143.11;100.00;65634.97;5093895;28;20208;-65
2022/04/04 01:18:07;;;;;;;10.77;7.33;;;;;;;-143.11;100.00;65634.97;5075795;28;20181;-66
2022/04/04 01:20:34;;;;;;;10.63;7.80;;;;;;;-143.11;100.00;65634.97;5075722;28;20190;-65
2022/04/04 01:23:00;;;;;;;10.53;7.40;;;;;;;-143.11;100.00;65634.97;5075820;28;20184;-66
2022/04/04 01:25:27;;;;;;;8.80;6.87;;;;;;;-143.11;100.00;65634.97;5075729;28;20289;-55
2022/04/04 01:27:55;;;;;;;10.47;7.90;;;;;;;-143.11;100.00;65634.97;5075595;28;20184;-55
2022/04/04 01:30:21;;;;;;;11.27;8.13;;;;;;;-143.11;100.00;65634.97;5075842;28;20193;-57
2022/04/04 01:32:49;;;;;;;11.30;7.97;;;;;;;-143.11;100.00;65634.97;5075606;28;20191;-56
2022/04/04 01:35:15;;;;;;;11.60;7.70;;;;;;;-143.11;100.00;65634.97;5075729;28;20192;-55
2022/04/04 01:37:40;;;;;;;10.10;8.20;;;;;;;-143.11;100.00;65634.97;5075583;28;20261;-54
2022/04/04 01:40:06;;;;;;;9.30;7.53;;;;;;;-143.11;100.00;65634.97;5075534;28;20208;-57
2022/04/04 01:42:32;;;;;;;9.63;7.03;;;;;;;-143.11;100.00;65634.97;5075451;28;20265;-68
2022/04/04 01:44:57;;;;;;;10.37;7.33;;;;;;;-143.11;100.00;65634.97;5075704;28;20191;-68
2022/04/04 01:47:43;;;;;;;9.47;7.60;;;;;;;-143.11;100.00;65634.97;5075606;28;20188;-63
2022/04/04 01:50:09;;;;;;;8.77;7.03;;;;;;;-143.11;100.00;65634.97;5034505;28;20217;-62
2022/04/04 01:52:35;;;;;;;9.80;7.50;;;;;;;-143.11;100.00;65634.97;5034194;28;20201;-62
2022/04/04 01:55:00;;;;;;;11.00;7.23;;;;;;;-143.11;100.00;65634.97;5034544;28;20190;-62
2022/04/04 01:57:25;;;;;;;10.97;7.43;;;;;;;-143.11;100.00;65634.97;5034046;28;20213;-62
2022/04/04 01:59:51;;;;;;;10.20;7.57;;;;;;;-143.11;100.00;65634.97;5034013;28;20289;-63
2022/04/04 02:02:16;;;;;;;9.03;7.27;;;;;;;-143.11;100.00;65634.97;5034069;28;20224;-69
2022/04/04 02:04:42;;;;;;;10.23;7.73;;;;;;;-143.11;100.00;65634.97;5034437;28;20201;-63
2022/04/04 02:07:07;;;;;;;11.03;7.77;;;;;;;-143.11;100.00;65634.97;5033994;28;20189;-62
2022/04/04 02:09:34;;;;;;;10.10;7.30;;;;;;;-143.11;100.00;65634.97;5033999;28;20316;-62
2022/04/04 02:11:59;;;;;;;12.03;8.07;;;;;;;-143.11;100.00;65634.97;5033312;28;20213;-62
2022/04/04 02:14:24;;;;;;;10.30;7.93;;;;;;;-143.11;100.00;65634.97;5050337;28;20223;-61
2022/04/04 02:16:52;;;;;;;10.90;8.10;;;;;;;-143.11;100.00;65634.97;5033670;28;20233;-62
2022/04/04 02:19:18;;;;;;;11.40;7.53;;;;;;;-143.11;100.00;65634.97;5017320;28;20244;-60
2022/04/04 02:21:44;;;;;;;9.90;7.63;;;;;;;-143.11;100.00;65634.97;5064487;28;20204;-63
2022/04/04 02:24:10;;;;;;;12.57;8.43;;;;;;;-143.11;100.00;65634.97;5050155;28;20206;-69
2022/04/04 02:26:36;;;;;;;13.93;9.20;;;;;;;-143.11;100.00;65634.97;5033601;28;20186;-68
2022/04/04 02:29:02;;;;;;;14.53;9.83;;;;;;;-143.11;100.00;65634.97;5033847;28;20292;-67
2022/04/04 02:31:28;;;;;;;12.83;8.70;;;;;;;-143.11;100.00;65634.97;5033597;28;20210;-67
2022/04/04 02:33:53;;;;;;;12.67;8.37;;;;;;;-143.11;100.00;65634.97;5033764;28;20194;-67
2022/04/04 02:36:20;;;;;;;11.87;8.33;;;;;;;-143.11;100.00;65634.97;5033755;28;20197;-70
2022/04/04 02:38:46;;;;;;;10.23;7.70;;;;;;;-143.11;100.00;65634.97;5033694;28;20196;-63
2022/04/04 02:41:12;;;;;;;12.47;8.60;;;;;;;-143.11;100.00;65634.97;5000806;28;20546;-71
2022/04/04 02:43:38;;;;;;;14.30;9.10;;;;;;;-143.11;100.00;65634.97;5033257;28;20220;-71
2022/04/04 02:46:04;;;;;;;13.90;7.93;;;;;;;-143.11;100.00;65634.97;5033344;28;20323;-71
2022/04/04 02:48:29;;;;;;;13.40;8.60;;;;;;;-143.11;100.00;65634.97;5033300;28;20284;-71
2022/04/04 02:50:54;;;;;;;11.17;8.10;;;;;;;-143.11;100.00;65634.97;5033574;28;20288;-72
2022/04/04 02:53:20;;;;;;;13.27;8.83;;;;;;;-143.11;100.00;65634.97;5033434;28;20193;-71
2022/04/04 02:58:29;;;;;;;9.93;7.00;;;;;;;-143.11;100.00;65634.97;5092561;28;20212;-72
2022/04/04 03:00:54;;;;;;;9.53;7.07;;;;;;;-143.11;100.00;65634.97;5074333;28;20548;-57
2022/04/04 03:03:19;;;;;;;10.57;7.63;;;;;;;-143.11;100.00;65634.97;5074213;28;20307;-58
2022/04/04 03:05:46;;;;;;;10.47;7.23;;;;;;;-143.11;100.00;65634.97;5074353;28;20180;-59
2022/04/04 03:08:12;;;;;;;10.73;7.80;;;;;;;-143.11;100.00;65634.97;5074273;28;20278;-59
2022/04/04 03:10:38;;;;;;;14.53;7.73;;;;;;;-143.11;100.00;65634.97;5074110;28;20291;-58
2022/04/04 03:13:05;;;;;;;11.97;7.67;;;;;;;-143.11;100.00;65634.97;5074339;28;20176;-57
2022/04/04 03:15:34;;;;;;;12.27;7.57;;;;;;;-143.11;100.00;65634.97;5074141;28;20184;-62
2022/04/04 03:18:00;;;;;;;11.20;7.63;;;;;;;-143.11;100.00;65634.97;5074289;28;20188;-61
2022/04/04 03:20:25;;;;;;;10.10;7.10;;;;;;;-143.11;100.00;65634.97;5090859;28;20192;-61
2022/04/04 03:22:54;;;;;;;11.93;7.13;;;;;;;-143.11;100.00;65634.97;5074167;28;20183;-61
2022/04/04 03:25:19;;;;;;;9.80;6.77;;;;;;;-143.11;100.00;65634.97;5075966;28;20215;-60
2022/04/04 03:27:46;;;;;;;9.20;7.43;;;;;;;-143.11;100.00;65634.97;5077660;28;20177;-61
2022/04/04 03:30:17;;;;;;;9.63;7.40;;;;;;;-143.11;100.00;65634.97;5077719;28;20204;-61
2022/04/04 03:32:49;;;;;;;10.73;7.20;;;;;;;-143.11;100.00;65634.97;5077687;28;20261;-62
2022/04/04 03:35:15;;;;;;;9.80;6.97;;;;;;;-143.11;100.00;65634.97;5061757;28;20215;-62
2022/04/04 03:37:44;;;;;;;10.97;7.70;;;;;;;-143.11;100.00;65634.97;5095412;28;20188;-55
2022/04/04 03:40:13;;;;;;;10.77;7.63;;;;;;;-143.11;100.00;65634.97;5077852;28;20184;-57
2022/04/04 03:42:43;;;;;;;10.37;7.00;;;;;;;-143.11;100.00;65634.97;5077205;28;20382;-56
2022/04/04 03:45:13;;;;;;;9.00;6.70;;;;;;;-143.11;100.00;65634.97;5077265;28;20219;-59
2022/04/04 03:47:40;;;;;;;11.70;7.33;;;;;;;-143.11;100.00;65634.97;5077559;28;20261;-57
2022/04/04 03:50:07;;;;;;;10.43;7.10;;;;;;;-143.11;100.00;65634.97;5077569;28;20217;-56
2022/04/04 03:52:32;;;;;;;10.37;7.30;;;;;;;-143.11;100.00;65634.97;5077163;28;20203;-71
2022/04/04 03:54:57;;;;;;;8.90;7.30;;;;;;;-143.11;100.00;65634.97;5077452;28;20188;-56
2022/04/04 03:57:23;;;;;;;11.27;7.37;;;;;;;-143.11;100.00;65634.97;5077239;28;20784;-60
2022/04/04 03:59:49;;;;;;;12.50;7.33;;;;;;;-143.11;100.00;65634.97;5077537;28;20188;-56
2022/04/04 04:02:14;;;;;;;9.97;7.37;;;;;;;-143.11;100.00;65634.97;5077101;28;20242;-56
2022/04/04 04:04:40;;;;;;;11.57;7.20;;;;;;;-143.11;100.00;65634.97;5076980;28;20193;-57
2022/04/04 04:07:06;;;;;;;9.43;7.03;;;;;;;-143.11;100.00;65634.97;5076909;28;20181;-58
2022/04/04 04:09:31;;;;;;;10.83;8.20;;;;;;;-143.11;100.00;65634.97;5076983;28;20275;-61
2022/04/04 04:11:57;;;;;;;9.97;7.37;;;;;;;-143.11;100.00;65634.97;5076966;28;20257;-67
2022/04/04 04:14:24;;;;;;;10.63;7.03;;;;;;;-143.11;100.00;65634.97;5076865;28;20199;-63
2022/04/04 04:16:49;;;;;;;8.53;6.57;;;;;;;-143.11;100.00;65634.97;5094675;28;20204;-63
2022/04/04 04:21:58;;;;;;;8.53;6.73;;;;;;;-143.11;100.00;65634.97;5095263;28;20188;-63
2022/04/04 04:24:24;;;;;;;11.37;7.30;;;;;;;-143.11;100.00;65634.97;5076797;28;20196;-64
2022/04/04 04:26:50;;;;;;;10.43;7.17;;;;;;;-143.11;100.00;65634.97;5076886;28;20184;-63
2022/04/04 04:29:16;;;;;;;12.90;7.80;;;;;;;-143.11;100.00;65634.97;5076809;28;20191;-62
2022/04/04 04:31:41;;;;;;;12.20;7.73;;;;;;;-143.11;100.00;65634.97;5052002;28;20217;-70
2022/04/04 04:34:06;;;;;;;11.50;8.10;;;;;;;-143.11;100.00;65634.97;5035657;28;20213;-65
2022/04/04 04:36:32;;;;;;;12.90;8.60;;;;;;;-143.11;100.00;65634.97;5051980;28;20629;-71
2022/04/04 04:38:57;;;;;;;12.07;7.43;;;;;;;-143.11;100.00;65634.97;5052053;28;20186;-68
2022/04/04 04:41:22;;;;;;;11.87;8.00;;;;;;;-143.11;100.00;65634.97;5035056;28;20306;-67
2022/04/04 04:43:48;;;;;;;12.40;7.77;;;;;;;-143.11;100.00;65634.97;5034958;28;20177;-67
2022/04/04 04:46:13;;;;;;;10.53;8.20;;;;;;;-143.11;100.00;65634.97;5035269;28;20332;-58
2022/04/04 04:48:38;;;;;;;15.90;8.17;;;;;;;-143.11;100.00;65634.97;5035163;28;20189;-56
2022/04/04 04:51:04;;;;;;;14.40;8.30;;;;;;;-143.11;100.00;65634.97;5035193;28;20218;-62
2022/04/04 04:53:31;;;;;;;12.90;8.83;;;;;;;-143.11;100.00;65634.97;5018827;28;20598;-63
2022/04/04 04:55:57;;;;;;;13.60;8.47;;;;;;;-143.11;100.00;65634.97;4976504;28;20208;-61
2022/04/04 04:58:22;;;;;;;12.53;8.70;;;;;;;-143.11;100.00;65634.97;4960019;28;20319;-60
2022/04/04 05:00:47;;;;;;;12.27;7.97;;;;;;;-143.11;100.00;65634.97;4976222;28;20227;-62
2022/04/04 05:03:31;;;;;;;12.47;8.10;;;;;;;-143.11;100.00;65634.97;5020494;28;20237;-61
2022/04/04 05:05:56;;;;;;;11.00;7.63;;;;;;;-143.11;100.00;65634.97;5031623;28;20671;-63
2022/04/04 05:08:22;;;;;;;11.63;7.27;;;;;;;-143.11;100.00;65634.97;5031420;28;20289;-61
2022/04/04 05:10:48;;;;;;;9.77;6.93;;;;;;;-143.11;100.00;65634.97;5014806;28;20221;-62
2022/04/04 05:13:13;;;;;;;10.10;6.93;;;;;;;-143.11;100.00;65634.97;5031459;28;20194;-60
2022/04/04 05:15:40;;;;;;;12.03;7.53;;;;;;;-143.11;100.00;65634.97;5031272;28;20194;-60
2022/04/04 05:18:06;;;;;;;9.80;6.90;;;;;;;-143.11;100.00;65634.97;5031764;28;20423;-61
2022/04/04 05:20:31;;;;;;;9.57;6.67;;;;;;;-143.11;100.00;65634.97;5014728;28;20282;-61
2022/04/04 05:22:59;;;;;;;13.03;7.10;;;;;;;-143.11;100.00;65634.97;5031169;28;20222;-56
2022/04/04 05:25:25;;;;;;;11.07;7.43;;;;;;;-143.11;100.00;65634.97;5030980;28;20362;-55
2022/04/04 05:27:50;;;;;;;8.97;6.60;;;;;;;-143.11;100.00;65634.97;5014770;28;20205;-62
2022/04/04 05:30:16;;;;;;;10.40;7.83;;;;;;;-143.11;100.00;65634.97;5031076;28;20214;-64
2022/04/04 05:32:43;;;;;;;14.67;9.23;;;;;;;-143.11;100.00;65634.97;5030967;28;20313;-64
2022/04/04 05:35:09;;;;;;;14.10;7.40;;;;;;;-143.11;100.00;65634.97;5031276;28;20194;-64
2022/04/04 05:37:35;;;;;;;15.23;7.83;;;;;;;-143.11;100.00;65634.97;5030749;28;20190;-63
2022/04/04 05:40:03;;;;;;;9.03;7.10;;;;;;;-143.11;100.00;65634.97;5031004;28;20220;-63
2022/04/04 05:42:30;;;;;;;11.47;6.87;;;;;;;-143.11;100.00;65634.97;5030901;28;20194;-56
2022/04/04 05:44:55;;;;;;;12.37;7.03;;;;;;;-143.11;100.00;65634.97;5014751;28;20187;-64
2022/04/04 05:47:21;;;;;;;11.77;7.23;;;;;;;-143.11;100.00;65634.97;5072649;28;20209;-69
2022/04/04 05:49:50;;;;;;;8.73;6.80;;;;;;;-143.11;100.00;65634.97;5075501;28;20588;-64
2022/04/04 05:52:16;;;;;;;16.37;10.23;;;;;;;-143.11;100.00;65634.97;5075331;28;20191;-66
2022/04/04 05:54:54;;;;;;;13.40;9.57;;;;;;;-143.11;100.00;65634.97;5075325;28;20191;-65
2022/04/04 05:57:24;;;;;;;12.20;9.30;;;;;;;-143.11;100.00;65634.97;5075226;28;20191;-64
2022/04/04 05:59:50;;;;;;;8.57;7.40;;;;;;;-143.11;100.00;65634.97;5075048;28;20191;-65
2022/04/04 06:02:16;;;;;;;9.77;7.50;;;;;;;-143.11;100.00;65634.97;5075137;28;20189;-69
2022/04/04 06:04:42;;;;;;;10.13;7.73;;;;;;;-143.11;100.00;65634.97;5074852;28;20180;-61
2022/04/04 06:07:07;;;;;;;7.70;6.90;;;;;;;-143.11;100.00;65634.97;5075355;28;20188;-61
2022/04/04 06:09:32;;;;;;;10.20;7.20;;;;;;;-143.11;100.00;65634.97;5075211;28;20189;-61
2022/04/04 06:11:58;;;;;;;7.77;6.67;;;;;;;-143.11;100.00;65634.97;5075133;28;20680;-62
2022/04/04 06:14:23;;;;;;;7.77;6.93;;;;;;;-143.11;100.00;65634.97;5074891;28;20195;-64
2022/04/04 06:16:48;;;;;;;7.30;6.53;;;;;;;-143.11;100.00;65634.97;5075092;28;20191;-62
2022/04/04 06:19:14;;;;;;;8.77;7.40;;;;;;;-143.11;100.00;65634.97;5074849;28;20202;-67
2022/04/04 06:21:42;;;;;;;8.40;6.60;;;;;;;-143.11;100.00;65634.97;5074619;28;20193;-56
2022/04/04 06:24:07;;;;;;;8.97;6.90;;;;;;;-143.11;100.00;65634.97;5074929;28;20184;-56
2022/04/04 06:26:33;;;;;;;8.10;7.30;;;;;;;-143.11;100.00;65634.97;5074482;28;20307;-57
2022/04/04 06:28:58;;;;;;;8.40;7.03;;;;;;;-143.11;100.00;65634.97;5074768;28;20195;-59
2022/04/04 06:31:26;;;;;;;9.03;6.97;;;;;;;-143.11;100.00;65634.97;5074671;28;20244;-57
2022/04/04 06:33:52;;;;;;;7.87;6.17;;;;;;;-143.11;100.00;65634.97;5075404;28;20191;-59
2022/04/04 06:36:17;;;;;;;8.53;6.20;;;;;;;-143.11;100.00;65634.97;5074965;28;20196;-58
2022/04/04 06:38:42;;;;;;;8.47;6.40;;;;;;;-143.11;100.00;65634.97;5075150;28;20187;-61
2022/04/04 06:41:08;;;;;;;7.10;6.13;;;;;;;-143.11;100.00;65634.97;5074981;28;20188;-68
2022/04/04 06:43:33;;;;;;;7.27;6.37;;;;;;;-143.11;100.00;65634.97;5074885;28;20180;-67
2022/04/04 06:46:00;;;;;;;7.50;6.53;;;;;;;-143.11;100.00;65634.97;5074598;28;20173;-69
2022/04/04 06:48:25;;;;;;;9.07;7.37;;;;;;;-143.11;100.00;65634.97;5074850;28;20288;-68
2022/04/04 06:50:51;;;;;;;7.73;6.43;;;;;;;-143.11;100.00;65634.97;5074546;28;20204;-68
2022/04/04 06:53:16;;;;;;;7.07;5.80;;;;;;;-143.11;100.00;65634.97;5074498;28;20206;-68
2022/04/04 06:55:44;;;;;;;6.30;5.63;;;;;;;-143.11;100.00;65634.97;5074413;28;20176;-68
2022/04/04 06:58:09;;;;;;;6.20;5.50;;;;;;;-143.11;100.00;65634.97;5074183;28;20368;-68
2022/04/04 07:00:35;;;;;;;5.90;5.40;;;;;;;-143.11;100.00;65634.97;5073020;28;20235;-69
2022/04/04 07:03:01;;;;;;;6.33;5.70;;;;;;;-143.11;100.00;65634.97;5074257;28;20190;-68
2022/04/04 07:05:27;;;;;;;6.63;5.60;;;;;;;-143.11;100.00;65634.97;5074027;28;20188;-67
2022/04/04 07:07:53;;;;;;;8.27;7.47;;;;;;;-143.11;100.00;65634.97;5074387;28;20193;-66
2022/04/04 07:10:18;;;;;;;6.23;5.37;;;;;;;-143.11;100.00;65634.97;5074329;28;20273;-68
2022/04/04 07:12:43;;;;;;;6.50;5.23;;;;;;;-143.11;100.00;65634.97;5074003;28;20195;-68
2022/04/04 07:15:13;;;;;;;7.00;5.00;;;;;;;-143.11;100.00;65634.97;5074258;28;20244;-66
2022/04/04 07:17:40;;;;;;;5.90;4.80;;;;;;;-143.11;100.00;65634.97;5074052;28;20189;-70
2022/04/04 07:20:06;;;;;;;6.63;4.90;;;;;;;-143.11;100.00;65634.97;5074007;28;20192;-68
2022/04/04 07:22:43;;;;;;;5.03;4.53;;;;;;;-143.11;100.00;65634.97;5073960;28;20223;-67
2022/04/04 07:25:10;;;;;;;5.13;4.63;;;;;;;-143.11;100.00;65634.97;5073761;28;20246;-68
2022/04/04 07:27:41;;;;;;;5.40;4.90;;;;;;;-143.11;100.00;65634.97;5073980;28;20184;-70
2022/04/04 07:30:08;;;;;;;6.47;5.20;;;;;;;-143.11;100.00;65634.97;5074009;28;20588;-71
2022/04/04 07:32:40;;;;;;;6.03;4.30;;;;;;;-143.11;100.00;65634.97;5073728;28;20188;-70
2022/04/04 07:35:11;;;;;;;4.87;4.20;;;;;;;-143.11;100.00;65634.97;5074181;28;20252;-59
2022/04/04 07:37:37;;;;;;;4.70;4.20;;;;;;;-143.11;100.00;65634.97;5073987;28;20188;-59
2022/04/04 07:40:04;;;;;;;5.53;3.80;;;;;;;-143.11;100.00;65634.97;5073814;28;20192;-59
2022/04/04 07:42:30;;;;;;;5.03;4.00;;;;;;;-143.11;100.00;65634.97;5073835;28;20180;-58
2022/04/04 07:44:55;;;;;;;4.47;4.07;;;;;;;-143.11;100.00;65634.97;5073990;28;20207;-57
2022/04/04 07:47:21;;;;;;;4.73;3.90;;;;;;;-143.11;100.00;65634.97;5073910;28;20179;-59
2022/04/04 07:49:46;;;;;;;5.07;4.50;;;;;;;-143.11;100.00;65634.97;5073616;28;20190;-58
2022/04/04 07:52:11;;;;;;;5.33;3.97;;;;;;;-143.11;100.00;65634.97;5073822;28;20212;-74
2022/04/04 07:54:37;;;;;;;4.20;3.67;;;;;;;-143.11;100.00;65634.97;5073878;28;20181;-63
2022/04/04 07:57:02;;;;;;;4.13;3.73;;;;;;;-143.11;100.00;65634.97;5073637;28;20276;-62
2022/04/04 07:59:27;;;;;;;4.27;3.87;;;;;;;-143.11;100.00;65634.97;5073796;28;20220;-63
2022/04/04 08:01:53;;;;;;;4.43;4.03;;;;;;;-143.11;100.00;65634.97;5073721;28;20185;-62
2022/04/04 08:04:19;;;;;;;4.77;3.70;;;;;;;-143.11;100.00;65634.97;5073747;28;20224;-63
2022/04/04 08:06:45;;;;;;;5.87;4.17;;;;;;;-143.11;100.00;65634.97;5073478;28;20177;-61
2022/04/04 08:09:10;;;;;;;4.80;3.73;;;;;;;-143.11;100.00;65634.97;5073672;28;20195;-56
2022/04/04 08:11:36;;;;;;;7.28;5.00;;;;;;;-143.11;100.00;65634.97;5093725;28;20208;-59
2022/04/04 08:14:01;;;;;;;4.50;4.10;;;;;;;-143.11;100.00;65634.97;5076910;28;20185;-62
2022/04/04 08:16:26;;;;;;;3.60;3.30;;;;;;;-143.11;100.00;65634.97;5076741;28;20188;-62
2022/04/04 08:18:53;;;;;;;4.17;3.87;;;;;;;-143.11;100.00;65634.97;5077058;28;20224;-62
2022/04/04 08:21:19;;;;;;;4.37;3.50;;;;;;;-143.11;100.00;65634.97;5076769;28;20188;-60
2022/04/04 08:23:45;;;;;;;4.97;4.00;;;;;;;-143.11;100.00;65634.97;5076558;28;20184;-61
2022/04/04 08:26:10;;;;;;;4.97;3.30;;;;;;;-143.11;100.00;65634.97;5076883;28;20223;-61
2022/04/04 08:28:37;;;;;;;4.00;3.20;;;;;;;-143.11;100.00;65634.97;5076876;28;20185;-61
2022/04/04 08:31:03;;;;;;;4.40;3.20;;;;;;;-143.11;100.00;65634.97;5076617;28;20213;-63
2022/04/04 08:33:29;;;;;;;7.00;3.40;;;;;;;-143.11;100.00;65634.97;5076729;28;20185;-62
2022/04/04 08:35:55;;;;;;;4.10;3.67;;;;;;;-143.11;100.00;65634.97;5076713;28;20188;-64
2022/04/04 08:38:21;;;;;;;3.80;3.43;;;;;;;-143.11;100.00;65634.97;5076516;28;20192;-64
2022/04/04 08:40:48;;;;;;;4.87;3.80;;;;;;;-143.11;100.00;65634.97;5076594;28;20199;-65
2022/04/04 08:43:16;;;;;;;4.03;3.73;;;;;;;-143.11;100.00;65634.97;5076308;28;20185;-64
2022/04/04 08:45:42;;;;;;;3.87;3.47;;;;;;;-143.11;100.00;65634.97;5076563;28;20184;-64
2022/04/04 08:48:12;;;;;;;4.30;3.90;;;;;;;-143.11;100.00;65634.97;5076209;28;20271;-64
2022/04/04 08:50:39;;;;;;;4.13;3.83;;;;;;;-143.11;100.00;65634.97;5075937;28;20208;-65
2022/04/04 08:53:05;;;;;;;3.83;3.50;;;;;;;-143.11;100.00;65634.97;5075899;28;20248;-66
2022/04/04 08:55:31;;;;;;;4.40;4.00;;;;;;;-143.11;100.00;65634.97;5076035;28;20197;-64
2022/04/04 08:57:57;;;;;;;4.87;4.47;;;;;;;-143.11;100.00;65634.97;5076038;28;20207;-65
2022/04/04 09:00:22;;;;;;;4.43;4.03;;;;;;;-143.11;100.00;65634.97;5076085;28;20181;-66
2022/04/04 09:03:03;;;;;;;5.17;4.40;;;;;;;-143.11;100.00;65634.97;5076100;28;20245;-62
2022/04/04 09:05:31;;;;;;;5.63;3.80;;;;;;;-143.11;100.00;65634.97;5076064;28;20176;-61
2022/04/04 09:08:03;;;;;;;4.40;4.03;;;;;;;-143.11;100.00;65634.97;5075694;28;20185;-61
2022/04/04 09:10:37;;;;;;;4.33;3.93;;;;;;;-143.11;100.00;65634.97;5076163;28;20668;-62
2022/04/04 09:13:08;;;;;;;11.53;4.03;;;;;;;-143.11;100.00;65634.97;5076173;28;20249;-60
2022/04/04 09:16:02;;;;;;;6.20;4.27;;;;;;;-143.11;100.00;65634.97;5075947;28;20176;-61
2022/04/04 09:18:39;;;;;;;4.80;4.30;;;;;;;-143.11;100.00;65634.97;5076276;28;20200;-60
2022/04/04 09:21:10;;;;;;;4.60;4.20;;;;;;;-143.11;100.00;65634.97;5075962;28;20287;-61
2022/04/04 09:23:52;;;;;;;4.83;4.43;;;;;;;-143.11;100.00;65634.97;5074477;28;20185;-62
2022/04/04 09:26:41;;;;;;;5.40;4.10;;;;;;;-143.11;100.00;65634.97;5075745;28;20276;-66
2022/04/04 09:29:06;;;;;;;4.67;4.27;;;;;;;-143.11;100.00;65634.97;5075661;28;20333;-66
2022/04/04 09:31:32;;;;;;;4.83;4.43;;;;;;;-143.11;100.00;65634.97;5075311;28;20311;-66
2022/04/04 09:34:03;;;;;;;5.37;4.60;;;;;;;-143.11;100.00;65634.97;5075666;28;20181;-64
2022/04/04 09:36:30;;;;;;;4.70;4.27;;;;;;;-143.11;100.00;65634.97;5075720;28;20315;-66
2022/04/04 09:39:09;;;;;;;5.50;4.40;;;;;;;-143.11;100.00;65634.97;5075716;28;20185;-64
2022/04/04 09:41:36;;;;;;;5.83;4.90;;;;;;;-143.11;100.00;65634.97;5075402;28;20195;-67
2022/04/04 09:44:03;;;;;;;5.23;4.83;;;;;;;-143.11;100.00;65634.97;5075571;28;20275;-60
2022/04/04 09:46:33;;;;;;;6.13;5.50;;;;;;;-143.11;100.00;65634.97;5075450;28;20180;-62
2022/04/04 09:49:12;;;;;;;5.33;4.93;;;;;;;-143.11;100.00;65634.97;5075468;28;20199;-62
2022/04/04 09:51:48;;;;;;;5.70;4.97;;;;;;;-143.11;100.00;65634.97;5075257;28;20315;-62
2022/04/04 09:54:26;;;;;;;7.07;5.50;;;;;;;-143.11;100.00;65634.97;5075146;28;20286;-62
2022/04/04 09:57:10;;;;;;;9.47;8.50;;;;;;;-143.11;100.00;65634.97;5075493;28;20200;-60
2022/04/04 09:59:37;;;;;;;6.23;5.63;;;;;;;-143.11;100.00;65634.97;5075252;28;20188;-68
2022/04/04 10:02:03;;;;;;;6.10;5.60;;;;;;;-143.11;100.00;65634.97;5093252;28;20252;-59
2022/04/04 10:04:32;;;;;;;6.83;6.03;;;;;;;-143.11;100.00;65634.97;5075030;28;20188;-64
2022/04/04 10:07:00;;;;;;;6.83;6.17;;;;;;;-143.11;100.00;65634.97;5074989;28;20195;-62
2022/04/04 10:09:26;;;;;;;6.23;5.63;;;;;;;-143.11;100.00;65634.97;5075095;28;20184;-63
2022/04/04 10:11:52;;;;;;;6.20;5.70;;;;;;;-143.11;100.00;65634.97;5074919;28;20350;-62
2022/04/04 10:14:18;;;;;;;7.60;5.83;;;;;;;-143.11;100.00;65634.97;5074855;28;20195;-63
2022/04/04 10:16:44;;;;;;;6.40;5.80;;;;;;;-143.11;100.00;65634.97;5092674;28;20267;-65
2022/04/04 10:19:11;;;;;;;5.90;5.40;;;;;;;-143.11;100.00;65634.97;5075007;28;20219;-65
2022/04/04 10:21:36;;;;;;;6.73;6.03;;;;;;;-143.11;100.00;65634.97;5074736;28;20192;-61
2022/04/04 10:24:05;;;;;;;6.80;6.10;;;;;;;-143.11;100.00;65634.97;5074849;28;20187;-60
2022/04/04 10:26:33;;;;;;;6.10;5.60;;;;;;;-143.11;100.00;65634.97;5074778;28;20212;-63
2022/04/04 10:29:14;;;;;;;7.87;6.13;;;;;;;-143.11;100.00;65634.97;5074514;28;20206;-61
2022/04/04 10:31:47;;;;;;;7.00;5.83;;;;;;;-143.11;100.00;65634.97;5074619;28;20311;-63
2022/04/04 10:34:20;;;;;;;6.57;5.97;;;;;;;-143.11;100.00;65634.97;5074499;28;20263;-62
2022/04/04 10:37:08;;;;;;;6.47;5.87;;;;;;;-143.11;100.00;65634.97;5092667;28;20267;-62
2022/04/04 10:39:43;;;;;;;6.60;5.70;;;;;;;-143.11;100.00;65634.97;5074764;28;20188;-63
2022/04/04 10:42:30;;;;;;;6.60;6.00;;;;;;;-143.11;100.00;65634.97;5074381;28;20637;-62
2022/04/04 10:45:08;;;;;;;7.07;6.47;;;;;;;-143.11;100.00;65634.97;5074553;28;20249;-63
2022/04/04 10:47:37;;;;;;;8.10;6.80;;;;;;;-143.11;100.00;65634.97;5074303;28;20176;-62
2022/04/04 10:50:20;;;;;;;7.60;6.90;;;;;;;-143.11;100.00;65634.97;5074347;28;20324;-63
2022/04/04 10:52:46;;;;;;;7.77;7.07;;;;;;;-143.11;100.00;65634.97;5092527;28;20274;-63
2022/04/04 10:55:30;;;;;;;7.23;6.53;;;;;;;-143.11;100.00;65634.97;5074731;28;20192;-64
2022/04/04 10:58:22;;;;;;;7.73;6.93;;;;;;;-143.11;100.00;65634.97;5074538;28;20263;-60
2022/04/04 11:01:07;;;;;;;8.13;7.10;;;;;;;-143.11;100.00;65634.97;5063778;28;20252;-61
2022/04/04 11:03:34;;;;;;;6.90;6.30;;;;;;;-143.11;100.00;65634.97;5074390;28;20184;-61
2022/04/04 11:09:16;;;;;;;9.47;7.97;;;;;;;-143.11;100.00;65634.97;5092512;28;20271;-62
2022/04/04 11:12:09;;;;;;;7.93;6.60;;;;;;;-143.11;100.00;65634.97;5074087;28;20212;-62
2022/04/04 11:14:38;;;;;;;7.73;7.03;;;;;;;-143.11;100.00;65634.97;5074343;28;20192;-64
2022/04/04 11:17:06;;;;;;;7.93;7.23;;;;;;;-143.11;100.00;65634.97;5073999;28;20188;-57